sensor_id;sensor_type;location;lat;lon;timestamp;pressure;altitude;pressure_sealevel;temperature;humidity
10720;BME280;5411;58.386;15.560;2023-08-07T00:00:47;98543.06;;;18.41;100.00
10720;BME280;5411;58.386;15.560;2023-08-07T00:03:15;98527.03;;;18.45;100.00
10720;BME280;5411;58.386;15.560;2023-08-07T00:05:45;98522.41;;;18.45;100.00
10720;BME280;5411;58.386;15.560;2023-08-07T00:08:15;98517.50;;;18.47;100.00
10720;BME280;5411;58.386;15.560;2023-08-07T00:10:43;98500.94;;;18.49;100.00
10720;BME280;5411;58.386;15.560;2023-08-07T00:13:12;98504.13;;;18.51;100.00
10720;BME280;5411;58.386;15.560;2023-08-07T00:15:40;98508.44;;;18.52;100.00
10720;BME280;5411;58.386;15.560;2023-08-07T00:18:08;98496.22;;;18.55;100.00
10720;BME280;5411;58.386;15.560;2023-08-07T00:20:37;98487.50;;;18.58;100.00
10720;BME280;5411;58.386;15.560;2023-08-07T00:23:09;98470.69;;;18.61;100.00
10720;BME280;5411;58.386;15.560;2023-08-07T00:25:39;98468.47;;;18.63;100.00
10720;BME280;5411;58.386;15.560;2023-08-07T00:28:07;98473.56;;;18.64;100.00
10720;BME280;5411;58.386;15.560;2023-08-07T00:30:35;98465.94;;;18.66;100.00
10720;BME280;5411;58.386;15.560;2023-08-07T00:33:04;98459.13;;;18.69;100.00
10720;BME280;5411;58.386;15.560;2023-08-07T00:35:32;98459.63;;;18.71;100.00
10720;BME280;5411;58.386;15.560;2023-08-07T00:38:00;98448.50;;;18.72;100.00
10720;BME280;5411;58.386;15.560;2023-08-07T00:40:36;98435.44;;;18.74;100.00
10720;BME280;5411;58.386;15.560;2023-08-07T00:43:06;98417.44;;;18.78;100.00
10720;BME280;5411;58.386;15.560;2023-08-07T00:45:42;98394.66;;;18.79;100.00
10720;BME280;5411;58.386;15.560;2023-08-07T00:48:12;98409.81;;;18.80;100.00
10720;BME280;5411;58.386;15.560;2023-08-07T00:50:45;98414.13;;;18.81;100.00
10720;BME280;5411;58.386;15.560;2023-08-07T00:53:17;98405.09;;;18.86;100.00
10720;BME280;5411;58.386;15.560;2023-08-07T00:55:46;98395.06;;;18.86;100.00
10720;BME280;5411;58.386;15.560;2023-08-07T00:58:16;98396.69;;;18.88;100.00
10720;BME280;5411;58.386;15.560;2023-08-07T01:00:44;98397.19;;;18.90;100.00
10720;BME280;5411;58.386;15.560;2023-08-07T01:03:15;98397.19;;;18.90;100.00
10720;BME280;5411;58.386;15.560;2023-08-07T01:05:43;98403.06;;;18.92;100.00
10720;BME280;5411;58.386;15.560;2023-08-07T01:08:12;98397.66;;;18.92;100.00
10720;BME280;5411;58.386;15.560;2023-08-07T01:10:52;98408.50;;;18.92;100.00
10720;BME280;5411;58.386;15.560;2023-08-07T01:13:32;98403.06;;;18.92;100.00
10720;BME280;5411;58.386;15.560;2023-08-07T01:16:06;98398.94;;;18.94;100.00
10720;BME280;5411;58.386;15.560;2023-08-07T01:18:40;98395.13;;;18.95;100.00
10720;BME280;5411;58.386;15.560;2023-08-07T01:21:17;98399.75;;;18.95;100.00
10720;BME280;5411;58.386;15.560;2023-08-07T01:23:48;98401.34;;;18.96;100.00
10720;BME280;5411;58.386;15.560;2023-08-07T01:26:19;98394.84;;;18.97;100.00
10720;BME280;5411;58.386;15.560;2023-08-07T01:28:58;98385.91;;;18.96;100.00
10720;BME280;5411;58.386;15.560;2023-08-07T01:31:34;98360.19;;;18.94;100.00
10720;BME280;5411;58.386;15.560;2023-08-07T01:34:05;98365.75;;;18.89;100.00
10720;BME280;5411;58.386;15.560;2023-08-07T01:36:38;98350.59;;;18.88;100.00
10720;BME280;5411;58.386;15.560;2023-08-07T01:39:09;98382.31;;;18.87;100.00
10720;BME280;5411;58.386;15.560;2023-08-07T01:41:38;98397.78;;;18.86;100.00
10720;BME280;5411;58.386;15.560;2023-08-07T01:44:07;98392.34;;;18.86;100.00
10720;BME280;5411;58.386;15.560;2023-08-07T01:46:35;98404.91;;;18.82;100.00
10720;BME280;5411;58.386;15.560;2023-08-07T01:49:05;98416.03;;;18.81;100.00
10720;BME280;5411;58.386;15.560;2023-08-07T01:51:33;98416.34;;;18.79;100.00
10720;BME280;5411;58.386;15.560;2023-08-07T01:54:02;98390.84;;;18.80;100.00
10720;BME280;5411;58.386;15.560;2023-08-07T01:56:31;98384.94;;;18.78;100.00
10720;BME280;5411;58.386;15.560;2023-08-07T01:59:02;98381.41;;;18.78;100.00
10720;BME280;5411;58.386;15.560;2023-08-07T02:01:33;98378.72;;;18.78;100.00
10720;BME280;5411;58.386;15.560;2023-08-07T02:04:04;98369.81;;;18.77;100.00
10720;BME280;5411;58.386;15.560;2023-08-07T02:06:33;98344.91;;;18.75;100.00
10720;BME280;5411;58.386;15.560;2023-08-07T02:09:02;98323.25;;;18.75;100.00
10720;BME280;5411;58.386;15.560;2023-08-07T02:11:33;98350.66;;;18.74;100.00
10720;BME280;5411;58.386;15.560;2023-08-07T02:14:02;98344.13;;;18.75;100.00
10720;BME280;5411;58.386;15.560;2023-08-07T02:16:31;98345.41;;;18.77;100.00
10720;BME280;5411;58.386;15.560;2023-08-07T02:19:00;98351.63;;;18.78;100.00
10720;BME280;5411;58.386;15.560;2023-08-07T02:21:28;98364.88;;;18.79;100.00
10720;BME280;5411;58.386;15.560;2023-08-07T02:23:58;98362.44;;;18.78;100.00
10720;BME280;5411;58.386;15.560;2023-08-07T02:26:26;98357.84;;;18.78;100.00
10720;BME280;5411;58.386;15.560;2023-08-07T02:28:58;98341.09;;;18.76;100.00
10720;BME280;5411;58.386;15.560;2023-08-07T02:31:29;98354.66;;;18.76;100.00
10720;BME280;5411;58.386;15.560;2023-08-07T02:33:57;98330.28;;;18.76;100.00
10720;BME280;5411;58.386;15.560;2023-08-07T02:36:27;98325.16;;;18.75;100.00
10720;BME280;5411;58.386;15.560;2023-08-07T02:38:55;98335.34;;;18.78;100.00
10720;BME280;5411;58.386;15.560;2023-08-07T02:41:24;98333.94;;;18.80;100.00
10720;BME280;5411;58.386;15.560;2023-08-07T02:43:52;98338.25;;;18.81;100.00
10720;BME280;5411;58.386;15.560;2023-08-07T02:46:21;98344.47;;;18.82;100.00
10720;BME280;5411;58.386;15.560;2023-08-07T02:48:50;98333.66;;;18.82;100.00
10720;BME280;5411;58.386;15.560;2023-08-07T02:51:20;98344.69;;;18.85;100.00
10720;BME280;5411;58.386;15.560;2023-08-07T02:53:51;98340.88;;;18.86;100.00
10720;BME280;5411;58.386;15.560;2023-08-07T02:56:19;98326.81;;;18.84;100.00
10720;BME280;5411;58.386;15.560;2023-08-07T02:58:47;98323.66;;;18.91;100.00
10720;BME280;5411;58.386;15.560;2023-08-07T03:01:16;98338.34;;;18.90;100.00
10720;BME280;5411;58.386;15.560;2023-08-07T03:03:48;98321.28;;;18.90;100.00
10720;BME280;5411;58.386;15.560;2023-08-07T03:06:19;98326.22;;;18.88;100.00
10720;BME280;5411;58.386;15.560;2023-08-07T03:08:47;98317.59;;;18.85;100.00
10720;BME280;5411;58.386;15.560;2023-08-07T03:11:15;98308.34;;;18.86;100.00
10720;BME280;5411;58.386;15.560;2023-08-07T03:13:43;98313.97;;;18.90;100.00
10720;BME280;5411;58.386;15.560;2023-08-07T03:16:14;98315.88;;;18.90;100.00
10720;BME280;5411;58.386;15.560;2023-08-07T03:18:43;98295.00;;;18.90;100.00
10720;BME280;5411;58.386;15.560;2023-08-07T03:21:14;98307.91;;;18.93;100.00
10720;BME280;5411;58.386;15.560;2023-08-07T03:23:42;98294.84;;;18.95;100.00
10720;BME280;5411;58.386;15.560;2023-08-07T03:26:11;98288.63;;;18.95;100.00
10720;BME280;5411;58.386;15.560;2023-08-07T03:28:43;98300.75;;;18.97;100.00
10720;BME280;5411;58.386;15.560;2023-08-07T03:31:14;98298.56;;;18.99;100.00
10720;BME280;5411;58.386;15.560;2023-08-07T03:33:42;98287.91;;;19.03;100.00
10720;BME280;5411;58.386;15.560;2023-08-07T03:36:10;98295.59;;;19.09;100.00
10720;BME280;5411;58.386;15.560;2023-08-07T03:38:40;98290.03;;;19.14;100.00
10720;BME280;5411;58.386;15.560;2023-08-07T03:41:10;98275.53;;;19.19;100.00
10720;BME280;5411;58.386;15.560;2023-08-07T03:43:38;98269.69;;;19.26;100.00
10720;BME280;5411;58.386;15.560;2023-08-07T03:46:06;98276.09;;;19.30;100.00
10720;BME280;5411;58.386;15.560;2023-08-07T03:48:35;98276.91;;;19.30;100.00
10720;BME280;5411;58.386;15.560;2023-08-07T03:51:06;98277.38;;;19.32;100.00
10720;BME280;5411;58.386;15.560;2023-08-07T03:53:36;98267.31;;;19.33;100.00
10720;BME280;5411;58.386;15.560;2023-08-07T03:56:06;98264.66;;;19.41;100.00
10720;BME280;5411;58.386;15.560;2023-08-07T03:58:35;98271.19;;;19.40;100.00
10720;BME280;5411;58.386;15.560;2023-08-07T04:01:09;98249.50;;;19.40;100.00
10720;BME280;5411;58.386;15.560;2023-08-07T04:03:38;98256.59;;;19.50;100.00
10720;BME280;5411;58.386;15.560;2023-08-07T04:06:09;98249.84;;;19.47;100.00
10720;BME280;5411;58.386;15.560;2023-08-07T04:08:45;98263.91;;;19.49;100.00
10720;BME280;5411;58.386;15.560;2023-08-07T04:11:17;98258.50;;;19.49;100.00
10720;BME280;5411;58.386;15.560;2023-08-07T04:13:45;98267.94;;;19.52;100.00
10720;BME280;5411;58.386;15.560;2023-08-07T04:16:13;98269.72;;;19.56;100.00
10720;BME280;5411;58.386;15.560;2023-08-07T04:18:42;98260.91;;;19.60;100.00
10720;BME280;5411;58.386;15.560;2023-08-07T04:21:10;98266.84;;;19.62;100.00
10720;BME280;5411;58.386;15.560;2023-08-07T04:23:52;98273.06;;;19.62;100.00
10720;BME280;5411;58.386;15.560;2023-08-07T04:26:22;98282.84;;;19.72;100.00
10720;BME280;5411;58.386;15.560;2023-08-07T04:28:54;98273.09;;;19.71;100.00
10720;BME280;5411;58.386;15.560;2023-08-07T04:31:31;98274.84;;;19.67;100.00
10720;BME280;5411;58.386;15.560;2023-08-07T04:34:01;98282.69;;;19.68;100.00
10720;BME280;5411;58.386;15.560;2023-08-07T04:36:29;98291.31;;;19.70;100.00
10720;BME280;5411;58.386;15.560;2023-08-07T04:38:57;98285.53;;;19.72;100.00
10720;BME280;5411;58.386;15.560;2023-08-07T04:41:29;98289.25;;;19.76;100.00
10720;BME280;5411;58.386;15.560;2023-08-07T04:43:59;98280.16;;;19.80;100.00
10720;BME280;5411;58.386;15.560;2023-08-07T04:46:27;98291.97;;;19.84;100.00
10720;BME280;5411;58.386;15.560;2023-08-07T04:48:57;98284.97;;;19.83;100.00
10720;BME280;5411;58.386;15.560;2023-08-07T04:51:27;98271.22;;;19.80;100.00
10720;BME280;5411;58.386;15.560;2023-08-07T04:53:58;98269.00;;;19.82;100.00
10720;BME280;5411;58.386;15.560;2023-08-07T04:56:34;98268.81;;;19.78;100.00
10720;BME280;5411;58.386;15.560;2023-08-07T04:59:03;98268.81;;;19.78;100.00
10720;BME280;5411;58.386;15.560;2023-08-07T05:01:35;98263.69;;;19.77;100.00
10720;BME280;5411;58.386;15.560;2023-08-07T05:04:04;98265.31;;;19.78;100.00
10720;BME280;5411;58.386;15.560;2023-08-07T05:06:32;98263.38;;;19.78;100.00
10720;BME280;5411;58.386;15.560;2023-08-07T05:09:02;98252.84;;;19.77;100.00
10720;BME280;5411;58.386;15.560;2023-08-07T05:11:35;98248.53;;;19.76;100.00
10720;BME280;5411;58.386;15.560;2023-08-07T05:14:03;98253.97;;;19.76;100.00
10720;BME280;5411;58.386;15.560;2023-08-07T05:16:32;98243.09;;;19.76;100.00
10720;BME280;5411;58.386;15.560;2023-08-07T05:19:00;98247.72;;;19.75;100.00
10720;BME280;5411;58.386;15.560;2023-08-07T05:21:28;98243.41;;;19.74;100.00
10720;BME280;5411;58.386;15.560;2023-08-07T05:23:57;98231.44;;;19.75;100.00
10720;BME280;5411;58.386;15.560;2023-08-07T05:26:25;98243.59;;;19.78;100.00
10720;BME280;5411;58.386;15.560;2023-08-07T05:28:57;98254.94;;;19.80;100.00
10720;BME280;5411;58.386;15.560;2023-08-07T05:31:28;98231.31;;;19.80;100.00
10720;BME280;5411;58.386;15.560;2023-08-07T05:33:57;98215.19;;;19.84;100.00
10720;BME280;5411;58.386;15.560;2023-08-07T05:36:25;98216.31;;;19.83;100.00
10720;BME280;5411;58.386;15.560;2023-08-07T05:38:54;98207.81;;;19.84;100.00
10720;BME280;5411;58.386;15.560;2023-08-07T05:41:22;98207.19;;;19.87;100.00
10720;BME280;5411;58.386;15.560;2023-08-07T05:43:50;98213.59;;;19.91;100.00
10720;BME280;5411;58.386;15.560;2023-08-07T05:46:22;98211.06;;;19.95;100.00
10720;BME280;5411;58.386;15.560;2023-08-07T05:48:52;98193.00;;;19.99;100.00
10720;BME280;5411;58.386;15.560;2023-08-07T05:51:20;98194.28;;;20.02;100.00
10720;BME280;5411;58.386;15.560;2023-08-07T05:53:49;98209.47;;;20.03;100.00
10720;BME280;5411;58.386;15.560;2023-08-07T05:56:17;98211.06;;;20.04;100.00
10720;BME280;5411;58.386;15.560;2023-08-07T05:58:48;98207.41;;;20.08;100.00
10720;BME280;5411;58.386;15.560;2023-08-07T06:01:17;98215.25;;;20.10;100.00
10720;BME280;5411;58.386;15.560;2023-08-07T06:03:49;98214.09;;;20.11;100.00
10720;BME280;5411;58.386;15.560;2023-08-07T06:06:17;98203.25;;;20.11;100.00
10720;BME280;5411;58.386;15.560;2023-08-07T06:08:46;98211.06;;;20.12;100.00
10720;BME280;5411;58.386;15.560;2023-08-07T06:11:14;98216.50;;;20.12;100.00
10720;BME280;5411;58.386;15.560;2023-08-07T06:13:43;98205.63;;;20.12;100.00
10720;BME280;5411;58.386;15.560;2023-08-07T06:16:11;98198.94;;;20.10;100.00
10720;BME280;5411;58.386;15.560;2023-08-07T06:18:40;98209.16;;;20.13;100.00
10720;BME280;5411;58.386;15.560;2023-08-07T06:21:09;98202.91;;;20.12;100.00
10720;BME280;5411;58.386;15.560;2023-08-07T06:23:38;98213.47;;;20.14;100.00
10720;BME280;5411;58.386;15.560;2023-08-07T06:26:07;98201.81;;;20.13;100.00
10720;BME280;5411;58.386;15.560;2023-08-07T06:28:37;98197.66;;;20.16;100.00
10720;BME280;5411;58.386;15.560;2023-08-07T06:33:57;98199.75;;;20.19;100.00
10720;BME280;5411;58.386;15.560;2023-08-07T06:36:28;98190.47;;;20.20;100.00
10720;BME280;5411;58.386;15.560;2023-08-07T06:38:56;98187.13;;;20.23;100.00
10720;BME280;5411;58.386;15.560;2023-08-07T06:41:24;98192.56;;;20.23;100.00
10720;BME280;5411;58.386;15.560;2023-08-07T06:43:53;98193.38;;;20.23;100.00
10720;BME280;5411;58.386;15.560;2023-08-07T06:46:21;98171.97;;;20.22;100.00
10720;BME280;5411;58.386;15.560;2023-08-07T06:48:53;98166.22;;;20.23;100.00
10720;BME280;5411;58.386;15.560;2023-08-07T06:51:25;98169.38;;;20.25;100.00
10720;BME280;5411;58.386;15.560;2023-08-07T06:53:54;98170.19;;;20.26;100.00
10720;BME280;5411;58.386;15.560;2023-08-07T06:56:23;98165.88;;;20.34;100.00
10720;BME280;5411;58.386;15.560;2023-08-07T06:58:51;98164.28;;;20.41;100.00
10720;BME280;5411;58.386;15.560;2023-08-07T07:01:20;98168.44;;;20.47;100.00
10720;BME280;5411;58.386;15.560;2023-08-07T07:03:48;98172.09;;;20.51;100.00
10720;BME280;5411;58.386;15.560;2023-08-07T07:06:20;98167.63;;;20.55;100.00
10720;BME280;5411;58.386;15.560;2023-08-07T07:08:52;98175.78;;;20.55;100.00
10720;BME280;5411;58.386;15.560;2023-08-07T07:11:25;98171.63;;;20.58;100.00
10720;BME280;5411;58.386;15.560;2023-08-07T07:13:53;98178.66;;;20.59;100.00
10720;BME280;5411;58.386;15.560;2023-08-07T07:16:22;98173.53;;;20.57;100.00
10720;BME280;5411;58.386;15.560;2023-08-07T07:18:50;98174.81;;;20.60;100.00
10720;BME280;5411;58.386;15.560;2023-08-07T07:21:19;98172.59;;;20.62;100.00
10720;BME280;5411;58.386;15.560;2023-08-07T07:23:47;98168.09;;;20.66;100.00
10720;BME280;5411;58.386;15.560;2023-08-07T07:26:16;98171.13;;;20.64;100.00
10720;BME280;5411;58.386;15.560;2023-08-07T07:28:45;98167.59;;;20.64;100.00
10720;BME280;5411;58.386;15.560;2023-08-07T07:31:14;98182.00;;;20.64;100.00
10720;BME280;5411;58.386;15.560;2023-08-07T07:33:42;98181.19;;;20.64;100.00
10720;BME280;5411;58.386;15.560;2023-08-07T07:36:17;98177.34;;;20.65;100.00
10720;BME280;5411;58.386;15.560;2023-08-07T07:38:46;98172.72;;;20.66;100.00
10720;BME280;5411;58.386;15.560;2023-08-07T07:41:15;98159.28;;;20.69;100.00
10720;BME280;5411;58.386;15.560;2023-08-07T07:43:46;98147.75;;;20.81;100.00
10720;BME280;5411;58.386;15.560;2023-08-07T07:46:17;98152.63;;;21.05;100.00
10720;BME280;5411;58.386;15.560;2023-08-07T07:48:45;98156.91;;;21.14;100.00
10720;BME280;5411;58.386;15.560;2023-08-07T07:51:21;98168.09;;;21.21;100.00
10720;BME280;5411;58.386;15.560;2023-08-07T07:53:50;98161.22;;;21.24;100.00
10720;BME280;5411;58.386;15.560;2023-08-07T07:56:38;98167.63;;;21.28;100.00
10720;BME280;5411;58.386;15.560;2023-08-07T07:59:08;98170.50;;;21.23;100.00
10720;BME280;5411;58.386;15.560;2023-08-07T08:01:41;98176.28;;;21.21;100.00
10720;BME280;5411;58.386;15.560;2023-08-07T08:04:10;98172.75;;;21.21;100.00
10720;BME280;5411;58.386;15.560;2023-08-07T08:06:39;98169.22;;;21.20;100.00
10720;BME280;5411;58.386;15.560;2023-08-07T08:09:08;98167.31;;;21.21;100.00
10720;BME280;5411;58.386;15.560;2023-08-07T08:11:37;98160.91;;;21.25;100.00
10720;BME280;5411;58.386;15.560;2023-08-07T08:14:12;98151.88;;;21.42;100.00
10720;BME280;5411;58.386;15.560;2023-08-07T08:16:41;98157.97;;;21.60;100.00
10720;BME280;5411;58.386;15.560;2023-08-07T08:19:09;98161.09;;;21.79;100.00
10720;BME280;5411;58.386;15.560;2023-08-07T08:21:38;98167.97;;;21.97;100.00
10720;BME280;5411;58.386;15.560;2023-08-07T08:24:08;98168.03;;;22.18;100.00
10720;BME280;5411;58.386;15.560;2023-08-07T08:26:45;98160.84;;;22.34;100.00
10720;BME280;5411;58.386;15.560;2023-08-07T08:29:15;98167.34;;;22.42;100.00
10720;BME280;5411;58.386;15.560;2023-08-07T08:31:43;98166.13;;;22.52;100.00
10720;BME280;5411;58.386;15.560;2023-08-07T08:34:12;98174.09;;;22.57;100.00
10720;BME280;5411;58.386;15.560;2023-08-07T08:36:43;98174.00;;;22.65;100.00
10720;BME280;5411;58.386;15.560;2023-08-07T08:39:11;98159.50;;;22.73;100.00
10720;BME280;5411;58.386;15.560;2023-08-07T08:41:42;98163.66;;;22.92;100.00
10720;BME280;5411;58.386;15.560;2023-08-07T08:44:16;98183.81;;;23.12;100.00
10720;BME280;5411;58.386;15.560;2023-08-07T08:46:49;98175.78;;;23.27;100.00
10720;BME280;5411;58.386;15.560;2023-08-07T08:49:30;98166.94;;;23.55;100.00
10720;BME280;5411;58.386;15.560;2023-08-07T08:52:01;98168.97;;;23.58;100.00
10720;BME280;5411;58.386;15.560;2023-08-07T08:54:30;98163.84;;;23.68;100.00
10720;BME280;5411;58.386;15.560;2023-08-07T08:56:59;98168.53;;;23.68;100.00
10720;BME280;5411;58.386;15.560;2023-08-07T08:59:30;98174.44;;;23.82;100.00
10720;BME280;5411;58.386;15.560;2023-08-07T09:02:04;98179.53;;;23.84;100.00
10720;BME280;5411;58.386;15.560;2023-08-07T09:04:40;98167.91;;;23.87;100.00
10720;BME280;5411;58.386;15.560;2023-08-07T09:07:16;98158.66;;;24.03;100.00
10720;BME280;5411;58.386;15.560;2023-08-07T09:09:49;98151.38;;;24.07;100.00
10720;BME280;5411;58.386;15.560;2023-08-07T09:12:25;98159.06;;;24.17;100.00
10720;BME280;5411;58.386;15.560;2023-08-07T09:14:57;98169.31;;;24.21;100.00
10720;BME280;5411;58.386;15.560;2023-08-07T09:17:28;98152.63;;;24.38;100.00
10720;BME280;5411;58.386;15.560;2023-08-07T09:20:00;98138.31;;;24.57;100.00
10720;BME280;5411;58.386;15.560;2023-08-07T09:22:29;98146.78;;;24.51;100.00
10720;BME280;5411;58.386;15.560;2023-08-07T09:24:58;98130.75;;;24.66;100.00
10720;BME280;5411;58.386;15.560;2023-08-07T09:27:27;98128.47;;;24.68;100.00
10720;BME280;5411;58.386;15.560;2023-08-07T09:29:57;98126.28;;;24.73;100.00
10720;BME280;5411;58.386;15.560;2023-08-07T09:32:26;98124.78;;;24.76;100.00
10720;BME280;5411;58.386;15.560;2023-08-07T09:34:55;98123.91;;;24.88;100.00
10720;BME280;5411;58.386;15.560;2023-08-07T09:37:23;98118.28;;;25.12;100.00
10720;BME280;5411;58.386;15.560;2023-08-07T09:39:52;98114.06;;;25.14;100.00
10720;BME280;5411;58.386;15.560;2023-08-07T09:42:20;98109.19;;;25.24;100.00
10720;BME280;5411;58.386;15.560;2023-08-07T09:44:48;98106.44;;;25.24;100.00
10720;BME280;5411;58.386;15.560;2023-08-07T09:47:19;98107.16;;;25.20;100.00
10720;BME280;5411;58.386;15.560;2023-08-07T09:49:48;98107.06;;;25.17;100.00
10720;BME280;5411;58.386;15.560;2023-08-07T09:52:16;98107.50;;;25.19;100.00
10720;BME280;5411;58.386;15.560;2023-08-07T09:54:44;98112.00;;;25.27;100.00
10720;BME280;5411;58.386;15.560;2023-08-07T09:57:13;98113.66;;;25.32;100.00
10720;BME280;5411;58.386;15.560;2023-08-07T09:59:42;98116.16;;;25.21;100.00
10720;BME280;5411;58.386;15.560;2023-08-07T10:02:10;98107.78;;;25.14;100.00
10720;BME280;5411;58.386;15.560;2023-08-07T10:04:44;98105.81;;;25.30;100.00
10720;BME280;5411;58.386;15.560;2023-08-07T10:07:14;98097.81;;;25.56;100.00
10720;BME280;5411;58.386;15.560;2023-08-07T10:09:45;98092.75;;;25.58;100.00
10720;BME280;5411;58.386;15.560;2023-08-07T10:12:16;98091.56;;;25.56;100.00
10720;BME280;5411;58.386;15.560;2023-08-07T10:14:45;98075.19;;;25.60;100.00
10720;BME280;5411;58.386;15.560;2023-08-07T10:17:14;98072.38;;;25.56;100.00
10720;BME280;5411;58.386;15.560;2023-08-07T10:19:45;98093.50;;;25.55;100.00
10720;BME280;5411;58.386;15.560;2023-08-07T10:22:15;98102.34;;;25.65;100.00
10720;BME280;5411;58.386;15.560;2023-08-07T10:24:47;98099.31;;;25.70;99.99
10720;BME280;5411;58.386;15.560;2023-08-07T10:27:18;98105.16;;;25.68;100.00
10720;BME280;5411;58.386;15.560;2023-08-07T10:29:49;98111.88;;;25.90;99.53
10720;BME280;5411;58.386;15.560;2023-08-07T10:32:20;98106.25;;;26.02;98.89
10720;BME280;5411;58.386;15.560;2023-08-07T10:34:51;98116.06;;;26.03;97.65
10720;BME280;5411;58.386;15.560;2023-08-07T10:37:32;98107.84;;;26.03;96.15
10720;BME280;5411;58.386;15.560;2023-08-07T10:40:02;98110.50;;;26.00;96.73
10720;BME280;5411;58.386;15.560;2023-08-07T10:42:50;98117.31;;;26.06;96.34
10720;BME280;5411;58.386;15.560;2023-08-07T10:45:19;98115.28;;;26.03;95.59
10720;BME280;5411;58.386;15.560;2023-08-07T10:48:02;98137.00;;;25.92;93.32
10720;BME280;5411;58.386;15.560;2023-08-07T10:50:50;98143.31;;;25.77;93.41
10720;BME280;5411;58.386;15.560;2023-08-07T10:53:19;98133.44;;;25.56;94.82
10720;BME280;5411;58.386;15.560;2023-08-07T10:55:48;98126.19;;;25.48;96.06
10720;BME280;5411;58.386;15.560;2023-08-07T10:58:23;98122.22;;;25.46;96.64
10720;BME280;5411;58.386;15.560;2023-08-07T11:01:15;98115.25;;;25.64;95.97
10720;BME280;5411;58.386;15.560;2023-08-07T11:03:49;98099.69;;;25.68;94.43
10720;BME280;5411;58.386;15.560;2023-08-07T11:06:22;98108.56;;;25.81;92.93
10720;BME280;5411;58.386;15.560;2023-08-07T11:08:51;98121.25;;;25.89;91.86
10720;BME280;5411;58.386;15.560;2023-08-07T11:11:20;98122.84;;;25.90;91.12
10720;BME280;5411;58.386;15.560;2023-08-07T11:13:48;98109.50;;;25.88;92.63
10720;BME280;5411;58.386;15.560;2023-08-07T11:16:17;98112.59;;;25.87;89.83
10720;BME280;5411;58.386;15.560;2023-08-07T11:18:49;98114.97;;;25.88;89.73
10720;BME280;5411;58.386;15.560;2023-08-07T11:21:19;98113.19;;;25.96;89.73
10720;BME280;5411;58.386;15.560;2023-08-07T11:23:51;98107.50;;;26.05;88.27
10720;BME280;5411;58.386;15.560;2023-08-07T11:26:21;98109.22;;;26.13;89.24
10720;BME280;5411;58.386;15.560;2023-08-07T11:28:51;98100.19;;;26.12;89.58
10720;BME280;5411;58.386;15.560;2023-08-07T11:31:20;98096.31;;;26.13;90.67
10720;BME280;5411;58.386;15.560;2023-08-07T11:33:51;98099.50;;;25.96;88.76
10720;BME280;5411;58.386;15.560;2023-08-07T11:36:22;98101.41;;;25.76;91.30
10720;BME280;5411;58.386;15.560;2023-08-07T11:38:50;98116.03;;;25.65;91.44
10720;BME280;5411;58.386;15.560;2023-08-07T11:41:19;98119.91;;;25.64;91.79
10720;BME280;5411;58.386;15.560;2023-08-07T11:43:47;98117.63;;;25.66;89.97
10720;BME280;5411;58.386;15.560;2023-08-07T11:46:16;98127.00;;;25.65;88.71
10720;BME280;5411;58.386;15.560;2023-08-07T11:48:44;98129.16;;;25.75;87.27
10720;BME280;5411;58.386;15.560;2023-08-07T11:51:13;98113.03;;;25.70;86.79
10720;BME280;5411;58.386;15.560;2023-08-07T11:53:43;98108.59;;;25.49;87.56
10720;BME280;5411;58.386;15.560;2023-08-07T11:56:12;98103.16;;;25.34;88.44
10720;BME280;5411;58.386;15.560;2023-08-07T11:58:43;98086.94;;;25.25;90.41
10720;BME280;5411;58.386;15.560;2023-08-07T12:01:15;98080.66;;;25.25;89.79
10720;BME280;5411;58.386;15.560;2023-08-07T12:03:52;98076.06;;;25.29;89.23
10720;BME280;5411;58.386;15.560;2023-08-07T12:06:23;98072.59;;;25.32;89.06
10720;BME280;5411;58.386;15.560;2023-08-07T12:08:56;98081.44;;;25.25;87.69
10720;BME280;5411;58.386;15.560;2023-08-07T12:11:28;98086.06;;;25.05;86.13
10720;BME280;5411;58.386;15.560;2023-08-07T12:14:00;98085.41;;;24.80;86.16
10720;BME280;5411;58.386;15.560;2023-08-07T12:16:32;98083.56;;;24.69;88.04
10720;BME280;5411;58.386;15.560;2023-08-07T12:19:01;98095.38;;;24.57;89.29
10720;BME280;5411;58.386;15.560;2023-08-07T12:21:33;98098.63;;;24.47;89.99
10720;BME280;5411;58.386;15.560;2023-08-07T12:24:03;98083.50;;;24.37;89.83
10720;BME280;5411;58.386;15.560;2023-08-07T12:26:34;98093.78;;;24.28;90.11
10720;BME280;5411;58.386;15.560;2023-08-07T12:29:02;98112.25;;;24.19;90.23
10720;BME280;5411;58.386;15.560;2023-08-07T12:31:39;98103.84;;;24.12;91.70
10720;BME280;5411;58.386;15.560;2023-08-07T12:34:07;98106.59;;;24.12;91.62
10720;BME280;5411;58.386;15.560;2023-08-07T12:36:40;98102.13;;;24.20;92.14
10720;BME280;5411;58.386;15.560;2023-08-07T12:39:10;98106.09;;;24.34;90.13
10720;BME280;5411;58.386;15.560;2023-08-07T12:41:38;98114.38;;;24.38;87.81
10720;BME280;5411;58.386;15.560;2023-08-07T12:44:09;98114.19;;;24.31;85.43
10720;BME280;5411;58.386;15.560;2023-08-07T12:46:40;98134.88;;;24.04;87.51
10720;BME280;5411;58.386;15.560;2023-08-07T12:49:09;98135.72;;;23.80;87.65
10720;BME280;5411;58.386;15.560;2023-08-07T12:51:37;98150.19;;;23.68;89.44
10720;BME280;5411;58.386;15.560;2023-08-07T12:54:06;98140.97;;;23.61;88.86
10720;BME280;5411;58.386;15.560;2023-08-07T12:56:36;98153.94;;;23.64;88.52
10720;BME280;5411;58.386;15.560;2023-08-07T12:59:04;98147.19;;;23.86;86.89
10720;BME280;5411;58.386;15.560;2023-08-07T13:01:32;98146.03;;;23.99;85.50
10720;BME280;5411;58.386;15.560;2023-08-07T13:04:00;98146.38;;;23.97;83.94
10720;BME280;5411;58.386;15.560;2023-08-07T13:06:31;98131.03;;;23.93;83.04
10720;BME280;5411;58.386;15.560;2023-08-07T13:08:59;98134.56;;;23.93;82.74
10720;BME280;5411;58.386;15.560;2023-08-07T13:11:28;98125.38;;;23.73;82.45